createdAt,value
2022-08-01T00:00:10.613Z,66.44
2022-08-01T00:02:39.061Z,66.46
2022-08-01T00:05:07.246Z,66.58
2022-08-01T00:07:34.850Z,66.68
2022-08-01T00:10:02.321Z,66.67
2022-08-01T00:12:29.124Z,66.74
2022-08-01T00:14:55.796Z,66.80
2022-08-01T00:17:22.450Z,66.97
2022-08-01T00:19:49.250Z,66.76
2022-08-01T00:22:16.163Z,66.52
2022-08-01T00:24:42.786Z,66.67
2022-08-01T00:27:09.464Z,66.58
2022-08-01T00:30:04.685Z,66.76
2022-08-01T00:32:22.879Z,66.76
2022-08-01T00:34:49.823Z,66.76
2022-08-01T00:37:18.268Z,66.69
2022-08-01T00:39:44.930Z,66.57
2022-08-01T00:42:12.916Z,66.61
2022-08-01T00:44:40.289Z,66.62
2022-08-01T00:47:07.139Z,66.70
2022-08-01T00:49:34.225Z,66.88
2022-08-01T00:52:02.218Z,66.98
2022-08-01T00:54:29.403Z,67.02
2022-08-01T00:56:56.790Z,66.91
2022-08-01T00:59:25.843Z,66.95
2022-08-01T01:01:52.781Z,67.01
2022-08-01T01:04:20.587Z,67.02
2022-08-01T01:07:09.053Z,67.01
2022-08-01T01:09:59.863Z,67.12
2022-08-01T01:12:38.237Z,67.03
2022-08-01T01:15:19.061Z,67.27
2022-08-01T01:18:04.092Z,67.26
2022-08-01T01:20:36.927Z,67.56
2022-08-01T01:23:21.507Z,67.41
2022-08-01T01:26:00.270Z,67.23
2022-08-01T01:28:42.795Z,67.40
2022-08-01T01:31:12.857Z,67.62
2022-08-01T01:33:47.389Z,67.79
2022-08-01T01:36:15.585Z,67.91
2022-08-01T01:38:45.470Z,67.74
2022-08-01T01:41:14.049Z,68.14
2022-08-01T01:43:41.554Z,67.93
2022-08-01T01:46:10.747Z,67.89
2022-08-01T01:48:39.790Z,68.10
2022-08-01T01:51:06.845Z,68.14
2022-08-01T01:53:35.912Z,68.48
2022-08-01T01:56:03.808Z,68.35
2022-08-01T01:58:33.975Z,68.45
2022-08-01T02:01:03.556Z,68.58
2022-08-01T02:03:32.152Z,68.69
2022-08-01T02:06:00.256Z,68.77
2022-08-01T02:08:30.551Z,68.70
2022-08-01T02:11:19.319Z,68.66
2022-08-01T02:14:06.858Z,68.75
2022-08-01T02:16:37.211Z,68.83
2022-08-01T02:19:04.594Z,69.31
2022-08-01T02:21:45.250Z,69.20
2022-08-01T02:24:21.519Z,69.14
2022-08-01T02:27:02.499Z,69.56
2022-08-01T02:29:36.873Z,69.72
2022-08-01T02:32:06.179Z,69.76
2022-08-01T02:34:36.734Z,70.24
2022-08-01T02:37:05.504Z,70.62
2022-08-01T02:39:33.001Z,70.54
2022-08-01T02:42:04.649Z,70.54
2022-08-01T02:44:36.314Z,70.75
2022-08-01T02:47:04.535Z,71.02
2022-08-01T02:49:37.719Z,71.33
2022-08-01T02:52:10.909Z,71.53
2022-08-01T02:54:39.994Z,71.72
2022-08-01T02:57:09.100Z,71.88
2022-08-01T02:59:42.218Z,72.11
2022-08-01T03:02:10.370Z,72.35
2022-08-01T03:04:40.574Z,72.23
2022-08-01T03:07:09.371Z,72.49
2022-08-01T03:09:44.368Z,72.52
2022-08-01T03:12:15.315Z,72.86
2022-08-01T03:14:44.012Z,73.13
2022-08-01T03:17:12.505Z,73.04
2022-08-01T03:19:40.637Z,73.25
2022-08-01T03:22:13.591Z,73.12
2022-08-01T03:24:42.567Z,73.40
2022-08-01T03:27:10.108Z,73.81
2022-08-01T03:29:40.286Z,73.84
2022-08-01T03:32:08.122Z,73.79
2022-08-01T03:34:35.006Z,73.51
2022-08-01T03:37:16.118Z,73.55
2022-08-01T03:39:52.865Z,73.81
2022-08-01T03:42:24.531Z,73.68
2022-08-01T03:44:56.159Z,73.58
2022-08-01T03:47:27.193Z,73.50
2022-08-01T03:49:55.972Z,73.62
2022-08-01T03:52:24.837Z,73.68
2022-08-01T03:54:56.478Z,73.69
2022-08-01T03:57:36.050Z,74.09
2022-08-01T04:00:09.810Z,74.32
2022-08-01T04:02:39.961Z,74.22
2022-08-01T04:05:06.952Z,74.97
2022-08-01T04:07:37.022Z,75.90
2022-08-01T04:10:04.992Z,76.23
2022-08-01T04:12:33.616Z,76.28
2022-08-01T04:15:00.444Z,76.99
2022-08-01T04:17:27.062Z,76.82
2022-08-01T04:19:53.731Z,77.01
2022-08-01T04:22:20.650Z,76.59
2022-08-01T04:24:54.519Z,76.43
2022-08-01T04:27:50.008Z,77.21
2022-08-01T04:30:21.086Z,77.25
2022-08-01T04:32:48.904Z,76.70
2022-08-01T04:35:22.985Z,76.19
2022-08-01T04:38:05.753Z,75.84
2022-08-01T04:40:33.663Z,75.30
2022-08-01T04:43:01.282Z,75.00
2022-08-01T04:45:28.738Z,74.88
2022-08-01T04:47:56.342Z,75.05
2022-08-01T04:50:23.688Z,75.13
2022-08-01T04:52:50.358Z,75.02
2022-08-01T04:55:18.168Z,75.56
2022-08-01T04:57:47.445Z,75.82
2022-08-01T05:00:15.090Z,76.04
2022-08-01T05:02:41.687Z,76.61
2022-08-01T05:05:08.914Z,76.09
2022-08-01T05:07:45.114Z,75.79
2022-08-01T05:10:12.803Z,76.31
2022-08-01T05:12:39.527Z,76.73
2022-08-01T05:15:10.575Z,77.17
2022-08-01T05:17:43.236Z,77.21
2022-08-01T05:20:11.127Z,76.80
2022-08-01T05:22:38.048Z,77.09
2022-08-01T05:25:12.747Z,77.64
2022-08-01T05:27:45.387Z,77.06
2022-08-01T05:30:12.342Z,76.66
2022-08-01T05:32:39.305Z,77.11
2022-08-01T05:35:06.717Z,77.19
2022-08-01T05:37:33.366Z,77.03
2022-08-01T05:40:00.002Z,77.86
2022-08-01T05:42:27.212Z,77.58
2022-08-01T05:44:53.916Z,77.68
2022-08-01T05:47:20.670Z,77.08
2022-08-01T05:49:50.927Z,76.58
2022-08-01T05:52:20.090Z,77.24
2022-08-01T05:54:46.722Z,78.09
2022-08-01T05:57:13.532Z,78.45
2022-08-01T05:59:42.154Z,78.35
2022-08-01T06:02:09.316Z,78.45
2022-08-01T06:04:36.521Z,78.80
2022-08-01T06:07:03.242Z,79.46
2022-08-01T06:09:31.641Z,79.91
2022-08-01T06:11:58.682Z,80.47
2022-08-01T06:14:25.512Z,79.79
2022-08-01T06:16:52.255Z,79.07
2022-08-01T06:19:19.107Z,79.19
2022-08-01T06:21:45.709Z,78.41
2022-08-01T06:24:12.842Z,77.96
2022-08-01T06:26:39.538Z,77.40
2022-08-01T06:29:06.196Z,76.96
2022-08-01T06:31:33.898Z,76.72
2022-08-01T06:34:00.837Z,76.54
2022-08-01T06:36:27.770Z,76.43
2022-08-01T06:38:54.400Z,75.93
2022-08-01T06:41:21.062Z,75.80
2022-08-01T06:43:47.824Z,76.26
2022-08-01T06:46:17.191Z,75.31
2022-08-01T06:48:43.912Z,74.36
2022-08-01T06:51:10.642Z,73.99
2022-08-01T06:53:38.497Z,73.67
2022-08-01T06:56:06.593Z,73.84
2022-08-01T06:58:35.313Z,72.44
2022-08-01T07:01:05.086Z,72.13
2022-08-01T07:03:52.796Z,71.77
2022-08-01T07:06:19.145Z,70.01
2022-08-01T07:08:45.880Z,70.65
2022-08-01T07:11:12.560Z,69.73
2022-08-01T07:13:43.966Z,67.87
2022-08-01T07:16:13.465Z,68.18
2022-08-01T07:18:40.251Z,69.07
2022-08-01T07:21:06.957Z,67.57
2022-08-01T07:23:46.128Z,68.00
2022-08-01T07:26:14.165Z,69.32
2022-08-01T07:28:43.918Z,69.94
2022-08-01T07:31:10.925Z,70.28
2022-08-01T07:33:48.441Z,69.60
2022-08-01T07:36:20.370Z,68.05
2022-08-01T07:38:47.587Z,68.42
2022-08-01T07:41:14.813Z,67.93
2022-08-01T07:43:47.270Z,69.31
2022-08-01T07:46:19.870Z,70.15
2022-08-01T07:48:46.596Z,72.01
2022-08-01T07:51:13.390Z,72.66
2022-08-01T07:53:40.124Z,72.66
2022-08-01T07:56:07.284Z,71.69
2022-08-01T07:58:34.477Z,70.77
2022-08-01T08:01:01.126Z,70.45
2022-08-01T08:03:27.851Z,69.43
2022-08-01T08:05:59.564Z,69.90
2022-08-01T08:08:30.353Z,70.86
2022-08-01T08:10:57.044Z,70.90
2022-08-01T08:13:23.684Z,70.63
2022-08-01T08:15:50.413Z,70.32
2022-08-01T08:18:20.159Z,69.59
2022-08-01T08:20:46.843Z,69.60
2022-08-01T08:23:42.177Z,70.62
2022-08-01T08:26:11.648Z,69.62
2022-08-01T08:28:38.317Z,68.53
2022-08-01T08:31:07.235Z,69.72
2022-08-01T08:33:33.871Z,69.40
2022-08-01T08:36:02.313Z,68.50
2022-08-01T08:38:30.126Z,67.78
2022-08-01T08:40:58.239Z,67.49
2022-08-01T08:43:27.054Z,67.20
2022-08-01T08:45:58.105Z,68.10
2022-08-01T08:48:27.844Z,68.43
2022-08-01T08:50:59.381Z,68.93
2022-08-01T08:53:27.292Z,69.80
2022-08-01T08:56:03.521Z,69.80
2022-08-01T08:58:35.201Z,69.78
2022-08-01T09:01:02.202Z,69.71
2022-08-01T09:03:29.019Z,70.72
2022-08-01T09:05:55.760Z,71.05
2022-08-01T09:08:24.044Z,72.92
2022-08-01T09:10:53.352Z,76.52
2022-08-01T09:13:19.965Z,78.18
2022-08-01T09:16:06.172Z,78.58
2022-08-01T09:18:35.668Z,78.29
2022-08-01T09:21:24.052Z,78.10
2022-08-01T09:23:55.007Z,78.20
2022-08-01T09:26:31.221Z,78.36
2022-08-01T09:28:58.429Z,78.77
2022-08-01T09:31:27.761Z,80.12
2022-08-01T09:34:05.915Z,80.15
2022-08-01T09:36:55.357Z,81.57
2022-08-01T09:39:24.963Z,80.81
2022-08-01T09:41:52.768Z,82.20
2022-08-01T09:44:42.350Z,82.39
2022-08-01T09:47:10.744Z,82.72
2022-08-01T09:49:50.432Z,83.32
2022-08-01T09:52:21.520Z,84.89
2022-08-01T09:54:58.418Z,84.92
2022-08-01T09:57:25.455Z,83.80
2022-08-01T09:59:58.751Z,82.40
2022-08-01T10:02:38.375Z,81.91
2022-08-01T10:05:08.815Z,80.38
2022-08-01T10:07:44.077Z,79.41
2022-08-01T10:10:14.467Z,79.99
2022-08-01T10:12:44.391Z,81.92
2022-08-01T10:15:16.142Z,81.64
2022-08-01T10:17:54.321Z,81.69
2022-08-01T10:20:30.064Z,80.95
2022-08-01T10:23:06.326Z,80.96
2022-08-01T10:25:42.874Z,80.36
2022-08-01T10:28:21.681Z,79.62
2022-08-01T10:30:52.144Z,79.60
2022-08-01T10:33:51.865Z,80.54
2022-08-01T10:36:10.690Z,82.38
2022-08-01T10:38:38.076Z,82.72
2022-08-01T10:41:08.537Z,81.33
2022-08-01T10:43:36.397Z,81.68
2022-08-01T10:46:04.963Z,80.37
2022-08-01T10:49:15.454Z,79.04
2022-08-01T10:51:51.279Z,80.61
2022-08-01T10:54:19.716Z,82.17
2022-08-01T10:56:50.524Z,80.35
2022-08-01T10:59:49.273Z,79.36
2022-08-01T11:02:10.064Z,78.34
2022-08-01T11:05:18.033Z,78.03
2022-08-01T11:07:52.540Z,79.55
2022-08-01T11:10:45.289Z,78.58
2022-08-01T11:13:13.483Z,80.23
2022-08-01T11:15:49.947Z,81.24
2022-08-01T11:18:32.531Z,80.20
2022-08-01T11:21:56.431Z,78.88
2022-08-01T11:23:50.674Z,80.30
2022-08-01T11:26:18.105Z,81.14
2022-08-01T11:29:20.662Z,81.31
2022-08-01T11:31:48.588Z,82.32
2022-08-01T11:34:15.619Z,83.71
2022-08-01T11:37:09.782Z,82.30
2022-08-01T11:39:30.177Z,81.98
2022-08-01T11:42:22.014Z,81.69
2022-08-01T11:44:51.179Z,82.48
2022-08-01T11:47:19.471Z,82.73
2022-08-01T11:49:51.706Z,82.30
2022-08-01T11:52:25.970Z,82.06
2022-08-01T11:55:01.707Z,81.26
2022-08-01T11:57:36.087Z,80.91
2022-08-01T12:00:16.579Z,80.44
2022-08-01T12:02:46.408Z,80.94
2022-08-01T12:05:15.650Z,81.40
2022-08-01T12:07:44.602Z,81.62
2022-08-01T12:10:12.373Z,81.26
2022-08-01T12:12:49.328Z,80.43
2022-08-01T12:15:17.030Z,79.53
2022-08-01T12:17:58.211Z,77.73
2022-08-01T12:20:30.721Z,75.52
2022-08-01T12:23:09.756Z,73.80
2022-08-01T12:25:37.673Z,72.81
2022-08-01T12:28:06.453Z,72.67
2022-08-01T12:30:37.509Z,72.49
2022-08-01T12:33:09.713Z,72.05
2022-08-01T12:35:44.410Z,69.70
2022-08-01T12:38:20.380Z,68.46
2022-08-01T12:40:53.009Z,67.83
2022-08-01T12:43:28.343Z,66.05
2022-08-01T12:45:59.316Z,65.07
2022-08-01T12:48:26.995Z,64.72
2022-08-01T12:50:54.960Z,64.10
2022-08-01T12:53:22.668Z,64.13
2022-08-01T12:55:59.670Z,61.49
2022-08-01T12:58:35.347Z,61.90
2022-08-01T13:01:10.652Z,61.23
2022-08-01T13:03:38.134Z,61.46
2022-08-01T13:06:16.314Z,59.75
2022-08-01T13:08:43.596Z,59.40
2022-08-01T13:11:15.587Z,59.54
2022-08-01T13:13:48.656Z,59.51
2022-08-01T13:16:30.376Z,57.66
2022-08-01T13:19:07.224Z,55.81
2022-08-01T13:21:54.486Z,54.84
2022-08-01T13:24:28.698Z,53.96
2022-08-01T13:27:01.071Z,55.28
2022-08-01T13:29:33.157Z,54.77
2022-08-01T13:32:01.233Z,54.90
2022-08-01T13:34:33.288Z,55.76
2022-08-01T13:37:02.476Z,55.87
2022-08-01T13:39:48.367Z,54.42
2022-08-01T13:42:19.389Z,55.46
2022-08-01T13:44:46.355Z,53.48
2022-08-01T13:47:15.818Z,54.07
2022-08-01T13:49:44.190Z,52.94
2022-08-01T13:52:11.073Z,53.48
2022-08-01T13:54:38.140Z,54.33
2022-08-01T13:57:04.984Z,53.86
2022-08-01T13:59:31.763Z,53.60
2022-08-01T14:01:58.459Z,52.78
2022-08-01T14:04:25.100Z,53.48
2022-08-01T14:06:51.741Z,52.81
2022-08-01T14:09:23.862Z,53.33
2022-08-01T14:11:51.468Z,52.23
2022-08-01T14:14:18.199Z,51.54
2022-08-01T14:16:47.733Z,51.25
2022-08-01T14:19:16.959Z,51.24
2022-08-01T14:21:43.569Z,51.37
2022-08-01T14:24:10.702Z,49.84
2022-08-01T14:26:37.328Z,49.74
2022-08-01T14:29:04.106Z,49.61
2022-08-01T14:31:34.129Z,50.28
2022-08-01T14:34:01.309Z,49.21
2022-08-01T14:36:32.446Z,47.43
2022-08-01T14:39:04.856Z,47.97
2022-08-01T14:41:33.466Z,47.62
2022-08-01T14:44:00.808Z,48.27
2022-08-01T14:46:27.608Z,48.51
2022-08-01T14:48:54.362Z,47.78
2022-08-01T14:51:20.993Z,47.73
2022-08-01T14:53:50.779Z,47.22
2022-08-01T14:56:18.320Z,48.50
2022-08-01T14:58:45.288Z,47.79
2022-08-01T15:01:14.898Z,48.33
2022-08-01T15:03:41.842Z,46.91
2022-08-01T15:06:10.506Z,47.56
2022-08-01T15:08:37.202Z,47.78
2022-08-01T15:11:03.997Z,47.04
2022-08-01T15:13:30.589Z,47.80
2022-08-01T15:15:59.784Z,47.52
2022-08-01T15:18:28.772Z,46.65
2022-08-01T15:20:56.240Z,45.57
2022-08-01T15:23:22.954Z,45.47
2022-08-01T15:25:50.410Z,46.66
2022-08-01T15:28:17.188Z,46.05
2022-08-01T15:30:43.916Z,46.20
2022-08-01T15:33:10.627Z,45.79
2022-08-01T15:35:37.276Z,45.75
2022-08-01T15:38:04.054Z,46.21
2022-08-01T15:40:35.929Z,45.44
2022-08-01T15:43:03.560Z,41.68
2022-08-01T15:45:47.060Z,41.36
2022-08-01T15:48:14.660Z,42.15
2022-08-01T15:50:41.383Z,42.28
2022-08-01T15:53:08.136Z,40.93
2022-08-01T15:55:39.100Z,42.76
2022-08-01T15:58:07.240Z,42.34
2022-08-01T16:00:39.577Z,43.44
2022-08-01T16:03:08.073Z,43.10
2022-08-01T16:05:41.092Z,42.09
2022-08-01T16:08:14.123Z,41.30
2022-08-01T16:10:40.943Z,41.89
2022-08-01T16:13:08.040Z,41.93
2022-08-01T16:15:39.139Z,41.81
2022-08-01T16:18:07.082Z,41.30
2022-08-01T16:20:34.457Z,41.93
2022-08-01T16:23:01.598Z,41.79
2022-08-01T16:25:28.286Z,41.63
2022-08-01T16:27:55.282Z,41.39
2022-08-01T16:30:22.124Z,41.58
2022-08-01T16:32:52.138Z,40.84
2022-08-01T16:35:24.600Z,40.10
2022-08-01T16:38:00.648Z,40.58
2022-08-01T16:40:27.409Z,40.33
2022-08-01T16:42:59.043Z,40.98
2022-08-01T16:45:26.229Z,41.57
2022-08-01T16:47:52.964Z,41.81
2022-08-01T16:50:28.610Z,41.56
2022-08-01T16:52:56.029Z,41.19
2022-08-01T16:55:23.298Z,40.84
2022-08-01T16:57:53.759Z,40.95
2022-08-01T17:00:21.289Z,40.17
2022-08-01T17:02:48.497Z,40.29
2022-08-01T17:05:15.338Z,39.88
2022-08-01T17:07:42.205Z,40.85
2022-08-01T17:10:09.417Z,41.63
2022-08-01T17:12:36.258Z,41.55
2022-08-01T17:15:03.556Z,41.76
2022-08-01T17:17:30.201Z,40.66
2022-08-01T17:19:56.811Z,40.21
2022-08-01T17:22:23.456Z,40.70
2022-08-01T17:24:51.861Z,41.32
2022-08-01T17:27:22.045Z,41.46
2022-08-01T17:29:48.751Z,41.27
2022-08-01T17:32:15.451Z,40.76
2022-08-01T17:34:42.594Z,40.63
2022-08-01T17:37:10.394Z,40.81
2022-08-01T17:39:38.781Z,41.02
2022-08-01T17:42:06.039Z,40.36
2022-08-01T17:44:32.666Z,40.54
2022-08-01T17:46:59.329Z,40.65
2022-08-01T17:49:52.204Z,41.58
2022-08-01T17:52:13.212Z,42.29
2022-08-01T17:54:39.935Z,42.50
2022-08-01T17:57:08.276Z,43.17
2022-08-01T17:59:35.544Z,43.10
2022-08-01T18:02:02.268Z,43.35
2022-08-01T18:04:33.876Z,43.71
2022-08-01T18:07:00.974Z,43.78
2022-08-01T18:09:32.519Z,44.11
2022-08-01T18:11:59.980Z,44.09
2022-08-01T18:14:39.913Z,44.51
2022-08-01T18:17:11.193Z,44.07
2022-08-01T18:19:39.187Z,44.34
2022-08-01T18:22:06.183Z,44.66
2022-08-01T18:24:52.996Z,45.05
2022-08-01T18:27:19.609Z,46.09
2022-08-01T18:29:47.389Z,46.50
2022-08-01T18:32:15.343Z,46.01
2022-08-01T18:34:42.090Z,46.68
2022-08-01T18:37:11.427Z,47.50
2022-08-01T18:39:40.068Z,48.16
2022-08-01T18:42:07.129Z,48.41
2022-08-01T18:44:33.790Z,48.77
2022-08-01T18:47:00.539Z,49.01
2022-08-01T18:49:27.226Z,49.75
2022-08-01T18:51:55.404Z,49.38
2022-08-01T18:54:24.249Z,49.57
2022-08-01T18:56:51.292Z,50.40
2022-08-01T18:59:18.147Z,50.33
2022-08-01T19:01:45.067Z,50.90
2022-08-01T19:04:13.304Z,50.77
2022-08-01T19:06:40.608Z,50.83
2022-08-01T19:09:07.373Z,51.04
2022-08-01T19:11:34.640Z,51.53
2022-08-01T19:14:02.257Z,50.77
2022-08-01T19:16:29.379Z,51.52
2022-08-01T19:18:56.203Z,51.11
2022-08-01T19:21:23.360Z,51.47
2022-08-01T19:24:08.772Z,51.71
2022-08-01T19:26:36.129Z,51.74
2022-08-01T19:29:16.443Z,51.58
2022-08-01T19:31:48.688Z,52.02
2022-08-01T19:34:18.279Z,52.37
2022-08-01T19:36:47.609Z,52.26
2022-08-01T19:39:16.916Z,52.15
2022-08-01T19:41:46.134Z,52.37
2022-08-01T19:44:15.031Z,52.42
2022-08-01T19:46:43.545Z,52.66
2022-08-01T19:49:17.639Z,52.84
2022-08-01T19:51:49.496Z,52.66
2022-08-01T19:54:19.491Z,52.74
2022-08-01T19:56:47.813Z,52.45
2022-08-01T19:59:20.217Z,52.73
2022-08-01T20:01:48.376Z,53.11
2022-08-01T20:04:16.763Z,53.09
2022-08-01T20:06:45.408Z,53.24
2022-08-01T20:09:15.562Z,53.37
2022-08-01T20:11:48.901Z,53.36
2022-08-01T20:14:19.160Z,53.39
2022-08-01T20:16:46.003Z,53.63
2022-08-01T20:19:13.553Z,53.57
2022-08-01T20:21:44.045Z,54.03
2022-08-01T20:24:38.078Z,53.55
2022-08-01T20:27:08.244Z,53.44
2022-08-01T20:29:36.519Z,54.13
2022-08-01T20:32:04.272Z,54.55
2022-08-01T20:34:37.722Z,55.31
2022-08-01T20:37:12.891Z,55.02
2022-08-01T20:39:43.461Z,55.03
2022-08-01T20:42:11.452Z,55.15
2022-08-01T20:44:38.909Z,54.92
2022-08-01T20:47:08.210Z,55.19
2022-08-01T20:49:36.764Z,55.41
2022-08-01T20:52:11.772Z,55.75
2022-08-01T20:54:43.010Z,56.12
2022-08-01T20:57:30.534Z,56.22
2022-08-01T21:00:05.812Z,56.17
2022-08-01T21:03:07.904Z,56.57
2022-08-01T21:05:42.805Z,56.74
2022-08-01T21:08:41.113Z,57.53
2022-08-01T21:11:13.346Z,58.48
2022-08-01T21:13:48.209Z,59.22
2022-08-01T21:16:26.447Z,60.05
2022-08-01T21:19:21.078Z,60.57
2022-08-01T21:21:54.124Z,61.24
2022-08-01T21:24:24.520Z,61.72
2022-08-01T21:26:52.536Z,62.41
2022-08-01T21:29:22.390Z,62.48
2022-08-01T21:32:09.672Z,63.04
2022-08-01T21:34:38.601Z,63.55
2022-08-01T21:37:09.521Z,64.26
2022-08-01T21:39:38.048Z,64.52
2022-08-01T21:42:08.453Z,64.61
2022-08-01T21:44:39.260Z,64.98
2022-08-01T21:47:06.657Z,65.01
2022-08-01T21:49:39.296Z,65.38
2022-08-01T21:52:18.234Z,65.64
2022-08-01T21:55:36.544Z,65.40
2022-08-01T21:58:12.066Z,65.38
2022-08-01T22:00:44.879Z,65.22
2022-08-01T22:03:24.971Z,65.73
2022-08-01T22:05:53.729Z,65.67
2022-08-01T22:08:38.890Z,65.15
2022-08-01T22:11:08.328Z,65.52
2022-08-01T22:13:37.072Z,65.05
2022-08-01T22:16:05.768Z,65.30
2022-08-01T22:18:33.697Z,65.04
2022-08-01T22:21:02.086Z,65.23
2022-08-01T22:23:28.916Z,65.41
2022-08-01T22:25:55.864Z,65.42
2022-08-01T22:28:23.683Z,65.08
2022-08-01T22:30:51.794Z,65.27
2022-08-01T22:33:22.019Z,65.43
2022-08-01T22:35:50.899Z,65.10
2022-08-01T22:38:19.466Z,64.95
2022-08-01T22:40:52.590Z,65.42
2022-08-01T22:43:40.912Z,64.88
2022-08-01T22:46:21.272Z,64.79
2022-08-01T22:49:08.881Z,65.24
2022-08-01T22:51:55.666Z,64.69
2022-08-01T22:54:35.177Z,65.07
2022-08-01T22:57:07.339Z,64.88
2022-08-01T22:59:45.713Z,64.75
2022-08-01T23:02:16.588Z,64.68
2022-08-01T23:04:46.392Z,64.99
2022-08-01T23:07:19.168Z,64.76
2022-08-01T23:09:54.214Z,64.37
2022-08-01T23:12:24.521Z,64.30
2022-08-01T23:14:53.780Z,64.51
2022-08-01T23:17:26.832Z,64.30
2022-08-01T23:20:04.739Z,64.78
2022-08-01T23:22:33.737Z,64.91
2022-08-01T23:25:06.603Z,64.82
2022-08-01T23:28:04.019Z,65.28
2022-08-01T23:30:30.063Z,64.72
2022-08-01T23:32:57.776Z,64.55
2022-08-01T23:35:25.562Z,65.29
2022-08-01T23:37:53.045Z,65.60
2022-08-01T23:40:20.689Z,65.30
2022-08-01T23:42:53.351Z,65.43
2022-08-01T23:45:20.581Z,65.40
2022-08-01T23:47:47.228Z,65.57
2022-08-01T23:50:13.870Z,65.48
2022-08-01T23:52:47.275Z,65.79
2022-08-01T23:55:16.719Z,65.61
2022-08-01T23:57:43.494Z,66.14
